Time;durP1;ratioP1;P1;durP2;ratioP2;P2;SDS_P1;SDS_P2;PMS_P1;PMS_P2;Temp;Humidity;BMP_temperature;BMP_pressure;BME280_temperature;BME280_humidity;BME280_pressure;Samples;Min_cycle;Max_cycle;Signal;HPM_P1;HPM_P2
2022/11/22 00:00:42;;;;;;;15.70;5.80;;;;;;;;;;5053341;28;20395;-76
2022/11/22 00:03:08;;;;;;;22.77;7.07;;;;;;;;;;5053533;28;20033;-76
2022/11/22 00:05:35;;;;;;;25.50;6.80;;;;;;;;;;5035645;28;20533;-77
2022/11/22 00:08:01;;;;;;;17.55;5.82;;;;;;;;;;5053526;28;20020;-77
2022/11/22 00:10:27;;;;;;;12.85;6.60;;;;;;;;;;5035629;28;20029;-76
2022/11/22 00:12:53;;;;;;;18.90;7.57;;;;;;;;;;5053133;28;20068;-76
2022/11/22 00:15:19;;;;;;;24.58;8.90;;;;;;;;;;5034455;28;20188;-76
2022/11/22 00:17:45;;;;;;;18.17;7.15;;;;;;;;;;5053032;28;20084;-77
2022/11/22 00:20:12;;;;;;;18.88;8.45;;;;;;;;;;5022612;28;20330;-77
2022/11/22 00:22:38;;;;;;;25.23;8.20;;;;;;;;;;5025912;28;20037;-76
2022/11/22 00:25:04;;;;;;;26.63;8.48;;;;;;;;;;5027990;28;20052;-76
2022/11/22 00:27:30;;;;;;;22.13;8.95;;;;;;;;;;5033322;28;20456;-76
2022/11/22 00:29:57;;;;;;;26.35;8.77;;;;;;;;;;5032952;28;20033;-76
2022/11/22 00:32:23;;;;;;;25.67;8.63;;;;;;;;;;5033005;28;20033;-76
2022/11/22 00:34:49;;;;;;;19.92;8.60;;;;;;;;;;5015513;28;20025;-76
2022/11/22 00:37:15;;;;;;;22.80;8.77;;;;;;;;;;5033142;28;20030;-77
2022/11/22 00:39:41;;;;;;;22.23;8.95;;;;;;;;;;5032806;28;20036;-76
2022/11/22 00:42:07;;;;;;;24.55;9.55;;;;;;;;;;5015320;28;20036;-76
2022/11/22 00:44:33;;;;;;;32.72;10.75;;;;;;;;;;5013507;28;20117;-76
2022/11/22 00:46:59;;;;;;;20.23;9.75;;;;;;;;;;5048564;28;20017;-76
2022/11/22 00:49:25;;;;;;;26.05;10.30;;;;;;;;;;5052858;28;20029;-76
2022/11/22 00:51:51;;;;;;;22.88;10.27;;;;;;;;;;5052548;28;20040;-76
2022/11/22 00:54:17;;;;;;;23.35;10.40;;;;;;;;;;5053036;28;20025;-76
2022/11/22 00:56:43;;;;;;;24.08;10.57;;;;;;;;;;5052199;28;20037;-76
2022/11/22 00:59:09;;;;;;;33.58;11.73;;;;;;;;;;5052348;28;20502;-76
2022/11/22 01:01:35;;;;;;;26.55;11.20;;;;;;;;;;5052200;28;20514;-76
2022/11/22 01:04:01;;;;;;;28.80;11.77;;;;;;;;;;5052505;28;20100;-76
2022/11/22 01:06:27;;;;;;;24.17;11.65;;;;;;;;;;5052369;28;20018;-76
2022/11/22 01:08:55;;;;;;;28.63;11.15;;;;;;;;;;5052286;28;20033;-76
2022/11/22 01:11:21;;;;;;;26.98;11.00;;;;;;;;;;5051168;28;20025;-76
2022/11/22 01:13:47;;;;;;;23.63;11.45;;;;;;;;;;5030761;28;20036;-76
2022/11/22 01:16:13;;;;;;;23.60;10.88;;;;;;;;;;5026162;28;20028;-76
2022/11/22 01:18:40;;;;;;;25.65;11.55;;;;;;;;;;5050828;28;20507;-76
2022/11/22 01:21:06;;;;;;;26.02;10.80;;;;;;;;;;5031532;28;20096;-76
2022/11/22 01:23:32;;;;;;;25.08;10.82;;;;;;;;;;5032296;28;20042;-76
2022/11/22 01:25:58;;;;;;;29.17;11.18;;;;;;;;;;5030572;28;20045;-76
2022/11/22 01:28:24;;;;;;;31.40;11.00;;;;;;;;;;5020092;28;20105;-76
2022/11/22 01:30:51;;;;;;;17.95;9.90;;;;;;;;;;5001303;28;20128;-76
2022/11/22 01:33:17;;;;;;;27.63;10.38;;;;;;;;;;5031325;28;20025;-76
2022/11/22 01:35:43;;;;;;;20.42;8.90;;;;;;;;;;5033995;28;20025;-76
2022/11/22 01:38:09;;;;;;;28.10;10.80;;;;;;;;;;5038387;28;20071;-75
2022/11/22 01:40:36;;;;;;;27.90;10.77;;;;;;;;;;5038316;28;20033;-76
2022/11/22 01:43:02;;;;;;;24.92;10.57;;;;;;;;;;5038264;28;20018;-76
2022/11/22 01:45:31;;;;;;;22.55;9.50;;;;;;;;;;5043718;28;20033;-76
2022/11/22 01:48:02;;;;;;;21.17;9.32;;;;;;;;;;5040452;28;20028;-76
2022/11/22 01:50:29;;;;;;;26.02;9.40;;;;;;;;;;5058620;28;20033;-76
2022/11/22 01:52:56;;;;;;;22.80;9.75;;;;;;;;;;5058091;28;20037;-76
2022/11/22 01:55:23;;;;;;;20.77;9.80;;;;;;;;;;5040354;28;20163;-75
2022/11/22 01:57:50;;;;;;;22.48;9.52;;;;;;;;;;5058225;28;20087;-76
2022/11/22 02:00:17;;;;;;;24.60;10.18;;;;;;;;;;5058196;28;20052;-76
2022/11/22 02:02:49;;;;;;;23.17;8.85;;;;;;;;;;5057997;28;20033;-76
2022/11/22 02:05:15;;;;;;;;;;;;;;;;;;5058616;28;20021;-76
2022/11/22 02:07:44;;;;;;;22.83;9.30;;;;;;;;;;5040402;28;20329;-76
2022/11/22 02:10:11;;;;;;;23.20;9.93;;;;;;;;;;5058046;28;20541;-76
2022/11/22 02:12:37;;;;;;;22.60;9.57;;;;;;;;;;5040310;28;20032;-76
2022/11/22 02:15:03;;;;;;;23.00;9.50;;;;;;;;;;5034783;28;20038;-76
2022/11/22 02:17:29;;;;;;;25.73;8.55;;;;;;;;;;5058242;28;20032;-76
2022/11/22 02:19:55;;;;;;;18.55;8.73;;;;;;;;;;5026631;28;20025;-76
2022/11/22 02:22:33;;;;;;;23.95;8.45;;;;;;;;;;5028900;28;20037;-76
2022/11/22 02:25:02;;;;;;;19.23;7.95;;;;;;;;;;5032917;28;20029;-76
2022/11/22 02:27:28;;;;;;;24.23;8.00;;;;;;;;;;5020381;28;20376;-76
2022/11/22 02:29:54;;;;;;;24.45;8.20;;;;;;;;;;5038392;28;20472;-76
2022/11/22 02:32:21;;;;;;;20.67;7.97;;;;;;;;;;5018054;28;20477;-76
2022/11/22 02:34:49;;;;;;;24.35;8.55;;;;;;;;;;5018061;28;20034;-76
2022/11/22 02:37:17;;;;;;;27.48;8.02;;;;;;;;;;5000105;28;20022;-75
2022/11/22 02:39:44;;;;;;;24.85;7.15;;;;;;;;;;5018066;28;20465;-76
2022/11/22 02:42:11;;;;;;;23.95;7.78;;;;;;;;;;4998575;28;20088;-76
2022/11/22 02:44:37;;;;;;;19.75;6.95;;;;;;;;;;5016319;28;20096;-76
2022/11/22 02:47:03;;;;;;;17.70;7.15;;;;;;;;;;5014122;28;20037;-76
2022/11/22 02:49:29;;;;;;;16.73;6.97;;;;;;;;;;4997324;28;20034;-75
2022/11/22 02:51:55;;;;;;;24.73;7.18;;;;;;;;;;5014738;28;20022;-76
2022/11/22 02:54:21;;;;;;;17.02;6.45;;;;;;;;;;5014636;28;20057;-76
2022/11/22 02:56:47;;;;;;;24.10;7.13;;;;;;;;;;5014479;28;20030;-76
2022/11/22 02:59:14;;;;;;;23.13;6.88;;;;;;;;;;4996744;28;20038;-76
2022/11/22 03:01:40;;;;;;;24.27;6.57;;;;;;;;;;5014737;28;20458;-76
2022/11/22 03:04:06;;;;;;;22.67;5.68;;;;;;;;;;5014720;28;20061;-76
2022/11/22 03:06:32;;;;;;;17.50;5.47;;;;;;;;;;4996708;28;20034;-76
2022/11/22 03:08:58;;;;;;;13.93;5.00;;;;;;;;;;5014779;28;20034;-76
2022/11/22 03:11:24;;;;;;;22.05;5.07;;;;;;;;;;5014957;28;20026;-75
2022/11/22 03:13:50;;;;;;;20.23;5.80;;;;;;;;;;4998799;28;20053;-76
2022/11/22 03:16:16;;;;;;;16.08;5.10;;;;;;;;;;5034630;28;20468;-76
2022/11/22 03:18:42;;;;;;;28.05;5.60;;;;;;;;;;5034618;28;20072;-76
2022/11/22 03:21:09;;;;;;;19.20;5.00;;;;;;;;;;5015461;28;20044;-76
2022/11/22 03:23:36;;;;;;;22.05;4.90;;;;;;;;;;5034189;28;20095;-76
2022/11/22 03:26:08;;;;;;;14.65;4.60;;;;;;;;;;5013033;28;20041;-76
2022/11/22 03:28:34;;;;;;;22.50;4.20;;;;;;;;;;5015649;28;20053;-76
2022/11/22 03:31:00;;;;;;;27.73;4.68;;;;;;;;;;5033002;28;20106;-76
2022/11/22 03:33:26;;;;;;;26.65;4.45;;;;;;;;;;5033967;28;20096;-76
2022/11/22 03:35:56;;;;;;;17.98;3.55;;;;;;;;;;5016743;28;20072;-76
2022/11/22 03:38:23;;;;;;;13.85;3.78;;;;;;;;;;5034063;28;20036;-76
2022/11/22 03:40:49;;;;;;;23.67;4.05;;;;;;;;;;5034321;28;20409;-76
2022/11/22 03:43:15;;;;;;;20.95;3.35;;;;;;;;;;5024439;28;20030;-76
2022/11/22 03:45:45;;;;;;;17.23;2.88;;;;;;;;;;4996819;28;20065;-76
2022/11/22 03:48:11;;;;;;;17.80;3.75;;;;;;;;;;5014240;28;20167;-76
2022/11/22 03:50:38;;;;;;;24.45;3.15;;;;;;;;;;5013952;28;20022;-76
2022/11/22 03:53:04;;;;;;;14.60;3.40;;;;;;;;;;5014164;28;20038;-76
2022/11/22 03:55:30;;;;;;;17.98;2.55;;;;;;;;;;5014006;28;20034;-76
2022/11/22 03:57:56;;;;;;;21.95;2.92;;;;;;;;;;5013844;28;20026;-76
2022/11/22 04:00:22;;;;;;;19.30;2.50;;;;;;;;;;4996382;28;20037;-76
2022/11/22 04:02:49;;;;;;;14.88;2.90;;;;;;;;;;4996314;28;20417;-76
2022/11/22 04:05:15;;;;;;;21.95;2.83;;;;;;;;;;5013968;28;20017;-76
2022/11/22 04:07:41;;;;;;;13.50;2.35;;;;;;;;;;4996151;28;20416;-76
2022/11/22 04:10:07;;;;;;;18.58;2.65;;;;;;;;;;4996596;28;20511;-75
2022/11/22 04:12:33;;;;;;;26.45;3.40;;;;;;;;;;5013738;28;20045;-76
2022/11/22 04:15:05;;;;;;;17.83;2.55;;;;;;;;;;5028123;28;20017;-76
2022/11/22 04:17:43;;;;;;;23.25;2.65;;;;;;;;;;5033529;28;20044;-75
2022/11/22 04:23:01;;;;;;;14.95;2.05;;;;;;;;;;5016785;28;20040;-76
2022/11/22 04:25:28;;;;;;;18.50;2.13;;;;;;;;;;5026561;28;20022;-75
2022/11/22 04:27:54;;;;;;;18.63;2.60;;;;;;;;;;4998501;28;20038;-75
2022/11/22 04:30:21;;;;;;;15.68;2.55;;;;;;;;;;5029855;28;20029;-76
2022/11/22 04:32:47;;;;;;;11.55;2.45;;;;;;;;;;5033147;28;20449;-75
2022/11/22 04:35:14;;;;;;;15.73;2.30;;;;;;;;;;5015130;28;20022;-76
2022/11/22 04:37:40;;;;;;;20.15;2.28;;;;;;;;;;5032790;28;20018;-75
2022/11/22 04:40:07;;;;;;;27.80;3.78;;;;;;;;;;5032968;28;20444;-76
2022/11/22 04:45:17;;;;;;;19.50;4.18;;;;;;;;;;5033295;28;20048;-75
2022/11/22 04:47:59;;;;;;;16.92;3.47;;;;;;;;;;5032820;28;20030;-76
2022/11/22 04:53:10;;;;;;;20.70;3.20;;;;;;;;;;5032745;28;20558;-76
2022/11/22 04:55:36;;;;;;;16.00;3.15;;;;;;;;;;5032796;28;20044;-76
2022/11/22 04:58:02;;;;;;;17.40;2.50;;;;;;;;;;5033176;28;20786;-76
2022/11/22 05:00:29;;;;;;;15.25;3.42;;;;;;;;;;5032244;28;20069;-75
2022/11/22 05:02:55;;;;;;;18.73;2.90;;;;;;;;;;5032471;28;20026;-75
2022/11/22 05:05:21;;;;;;;22.45;2.97;;;;;;;;;;5014854;28;20032;-76
2022/11/22 05:07:47;;;;;;;23.38;3.47;;;;;;;;;;5032826;28;20033;-75
2022/11/22 05:10:13;;;;;;;12.90;2.33;;;;;;;;;;5031954;28;20474;-75
2022/11/22 05:12:40;;;;;;;16.17;2.40;;;;;;;;;;5032483;28;20060;-75
2022/11/22 05:15:06;;;;;;;16.10;3.65;;;;;;;;;;5014815;28;20091;-75
2022/11/22 05:17:32;;;;;;;17.20;1.98;;;;;;;;;;5032433;28;20041;-76
2022/11/22 05:19:58;;;;;;;17.77;2.42;;;;;;;;;;5027498;28;20018;-75
2022/11/22 05:25:12;;;;;;;20.55;3.05;;;;;;;;;;5026145;28;20789;-75
2022/11/22 05:27:38;;;;;;;23.63;2.35;;;;;;;;;;5027550;28;20475;-76
2022/11/22 05:30:05;;;;;;;20.08;2.30;;;;;;;;;;5012185;28;20095;-76
2022/11/22 05:32:31;;;;;;;20.33;2.50;;;;;;;;;;5032338;28;20029;-76
2022/11/22 05:34:57;;;;;;;29.33;4.13;;;;;;;;;;5032133;28;20072;-76
2022/11/22 05:37:24;;;;;;;25.48;2.60;;;;;;;;;;5032231;28;20025;-76
2022/11/22 05:39:50;;;;;;;19.23;2.65;;;;;;;;;;5014472;28;20436;-75
2022/11/22 05:42:16;;;;;;;14.25;2.17;;;;;;;;;;5032426;28;20112;-75
2022/11/22 05:44:42;;;;;;;20.17;2.35;;;;;;;;;;5032259;28;20476;-75
2022/11/22 05:47:08;;;;;;;13.77;2.13;;;;;;;;;;5032138;28;20040;-76
2022/11/22 05:49:34;;;;;;;15.88;2.47;;;;;;;;;;5032300;28;20049;-76
2022/11/22 05:52:01;;;;;;;13.77;2.05;;;;;;;;;;5032216;28;20021;-76
2022/11/22 05:54:27;;;;;;;22.00;2.58;;;;;;;;;;5032668;28;20464;-76
2022/11/22 05:56:53;;;;;;;10.73;1.73;;;;;;;;;;5032190;28;20457;-76
2022/11/22 05:59:19;;;;;;;22.95;2.80;;;;;;;;;;5031620;28;20504;-76
2022/11/22 06:01:45;;;;;;;22.45;2.58;;;;;;;;;;5031554;28;20472;-76
2022/11/22 06:04:11;;;;;;;16.17;2.28;;;;;;;;;;5031882;28;20037;-75
2022/11/22 06:06:37;;;;;;;14.98;2.40;;;;;;;;;;5014147;28;20040;-75
2022/11/22 06:09:04;;;;;;;16.90;2.75;;;;;;;;;;5031740;28;20048;-75
2022/11/22 06:11:30;;;;;;;17.15;1.98;;;;;;;;;;5031662;28;20033;-76
2022/11/22 06:13:59;;;;;;;25.35;2.75;;;;;;;;;;5028208;28;20081;-75
2022/11/22 06:16:25;;;;;;;12.57;2.28;;;;;;;;;;5032029;28;20078;-75
2022/11/22 06:18:53;;;;;;;25.65;3.85;;;;;;;;;;5031618;28;20029;-75
2022/11/22 06:21:23;;;;;;;21.65;2.42;;;;;;;;;;5030454;28;20400;-75
2022/11/22 06:23:50;;;;;;;19.55;2.60;;;;;;;;;;5035070;28;20198;-75
2022/11/22 06:26:17;;;;;;;18.17;2.22;;;;;;;;;;5016597;28;20435;-75
2022/11/22 06:28:44;;;;;;;18.20;2.60;;;;;;;;;;5015814;28;20396;-75
2022/11/22 06:31:11;;;;;;;12.73;2.20;;;;;;;;;;5026484;28;20025;-75
2022/11/22 06:33:38;;;;;;;18.20;2.70;;;;;;;;;;5035571;28;20018;-76
2022/11/22 06:36:05;;;;;;;19.92;2.47;;;;;;;;;;5035406;28;20427;-75
2022/11/22 06:38:31;;;;;;;25.02;2.97;;;;;;;;;;5035575;28;20079;-75
2022/11/22 06:41:01;;;;;;;24.40;2.55;;;;;;;;;;5035434;28;20028;-76
2022/11/22 06:43:28;;;;;;;32.60;3.42;;;;;;;;;;5023507;28;20026;-75
2022/11/22 06:45:55;;;;;;;13.05;2.33;;;;;;;;;;5015417;28;20468;-75
2022/11/22 06:48:21;;;;;;;19.33;2.40;;;;;;;;;;5015455;28;20073;-75
2022/11/22 06:50:47;;;;;;;19.60;2.55;;;;;;;;;;5015629;28;20028;-76
2022/11/22 06:53:14;;;;;;;17.52;2.10;;;;;;;;;;5015156;28;20033;-75
2022/11/22 06:55:40;;;;;;;17.35;2.55;;;;;;;;;;5015438;28;20030;-75
2022/11/22 06:58:06;;;;;;;16.38;2.53;;;;;;;;;;4998260;28;20057;-76
2022/11/22 07:00:32;;;;;;;17.00;2.80;;;;;;;;;;4997527;28;20531;-76
2022/11/22 07:02:58;;;;;;;15.43;2.65;;;;;;;;;;5015087;28;20026;-76
2022/11/22 07:05:24;;;;;;;12.77;3.15;;;;;;;;;;5015277;28;20030;-76
2022/11/22 07:07:50;;;;;;;21.20;2.78;;;;;;;;;;4997484;28;20034;-75
2022/11/22 07:10:16;;;;;;;22.38;3.50;;;;;;;;;;5015162;28;20040;-75
2022/11/22 07:12:42;;;;;;;14.23;3.10;;;;;;;;;;5014907;28;20034;-75
2022/11/22 07:15:09;;;;;;;17.10;2.70;;;;;;;;;;5015068;28;20029;-76
2022/11/22 07:17:35;;;;;;;13.10;2.67;;;;;;;;;;5015073;28;20022;-75
2022/11/22 07:20:01;;;;;;;23.35;2.83;;;;;;;;;;5026168;28;20083;-76
2022/11/22 07:22:28;;;;;;;13.85;2.88;;;;;;;;;;4997404;28;20030;-76
2022/11/22 07:24:54;;;;;;;26.70;3.00;;;;;;;;;;5023829;28;20029;-75
2022/11/22 07:27:20;;;;;;;22.90;2.88;;;;;;;;;;4997292;28;20079;-75
2022/11/22 07:29:46;;;;;;;17.50;2.67;;;;;;;;;;5014852;28;20080;-76
2022/11/22 07:32:12;;;;;;;18.23;3.03;;;;;;;;;;5014515;28;20117;-76
2022/11/22 07:34:38;;;;;;;20.77;3.25;;;;;;;;;;4996478;28;20021;-76
2022/11/22 07:37:04;;;;;;;22.45;2.83;;;;;;;;;;5014421;28;20068;-76
2022/11/22 07:39:30;;;;;;;21.23;3.30;;;;;;;;;;5034049;28;20022;-75
2022/11/22 07:41:56;;;;;;;17.17;3.50;;;;;;;;;;5016437;28;20788;-75
2022/11/22 07:44:22;;;;;;;12.80;3.20;;;;;;;;;;5016476;28;20132;-76
2022/11/22 07:46:48;;;;;;;14.57;3.08;;;;;;;;;;5034286;28;20352;-76
2022/11/22 07:49:15;;;;;;;12.52;2.85;;;;;;;;;;5016986;28;20143;-75
2022/11/22 07:51:41;;;;;;;13.48;2.83;;;;;;;;;;5016052;28;20032;-76
2022/11/22 07:54:07;;;;;;;18.90;3.35;;;;;;;;;;5034152;28;20036;-75
2022/11/22 07:56:33;;;;;;;16.30;2.72;;;;;;;;;;5016452;28;20038;-76
2022/11/22 07:58:59;;;;;;;19.90;3.45;;;;;;;;;;5034007;28;20052;-76
2022/11/22 08:01:25;;;;;;;12.90;2.70;;;;;;;;;;5033705;28;20044;-75
2022/11/22 08:03:52;;;;;;;15.48;2.65;;;;;;;;;;5033835;28;20037;-76
2022/11/22 08:06:18;;;;;;;25.25;3.65;;;;;;;;;;5033683;28;20075;-76
2022/11/22 08:08:44;;;;;;;14.38;2.92;;;;;;;;;;5033963;28;20025;-76
2022/11/22 08:11:10;;;;;;;18.00;3.30;;;;;;;;;;5015952;28;20034;-76
2022/11/22 08:13:36;;;;;;;16.83;3.28;;;;;;;;;;5011557;28;20045;-75
2022/11/22 08:16:07;;;;;;;22.38;3.00;;;;;;;;;;4996306;28;20022;-76
2022/11/22 08:18:34;;;;;;;11.25;3.67;;;;;;;;;;5013785;28;20030;-76
2022/11/22 08:21:04;;;;;;;24.10;3.45;;;;;;;;;;5030556;28;20108;-76
2022/11/22 08:23:30;;;;;;;9.80;2.63;;;;;;;;;;5033538;28;20055;-75
2022/11/22 08:25:57;;;;;;;14.98;2.50;;;;;;;;;;5032857;28;20037;-76
2022/11/22 08:28:23;;;;;;;13.27;2.90;;;;;;;;;;5015691;28;20029;-76
2022/11/22 08:30:49;;;;;;;18.10;2.75;;;;;;;;;;5033381;28;20036;-76
2022/11/22 08:33:15;;;;;;;15.02;2.60;;;;;;;;;;5033170;28;20121;-76
2022/11/22 08:35:42;;;;;;;15.77;2.75;;;;;;;;;;5015682;28;20037;-76
2022/11/22 08:38:08;;;;;;;16.60;2.63;;;;;;;;;;5033086;28;20029;-76
2022/11/22 08:40:34;;;;;;;14.80;2.50;;;;;;;;;;5033390;28;20021;-76
2022/11/22 08:43:00;;;;;;;12.63;2.85;;;;;;;;;;5015479;28;20029;-77
2022/11/22 08:45:26;;;;;;;21.85;2.70;;;;;;;;;;5015050;28;20033;-76
2022/11/22 08:47:52;;;;;;;15.90;2.58;;;;;;;;;;4999222;28;20432;-76
2022/11/22 08:50:19;;;;;;;13.65;2.63;;;;;;;;;;5033477;28;20113;-76
2022/11/22 08:52:45;;;;;;;12.43;2.33;;;;;;;;;;5033110;28;20025;-76
2022/11/22 08:55:11;;;;;;;12.00;2.42;;;;;;;;;;5019158;28;20092;-76
2022/11/22 08:57:37;;;;;;;12.52;3.30;;;;;;;;;;5015859;28;20022;-76
2022/11/22 09:00:04;;;;;;;15.18;2.55;;;;;;;;;;5015082;28;20034;-76
2022/11/22 09:02:30;;;;;;;11.75;2.33;;;;;;;;;;5015487;28;20116;-76
2022/11/22 09:04:56;;;;;;;14.43;2.13;;;;;;;;;;5015072;28;20036;-76
2022/11/22 09:07:22;;;;;;;13.35;2.50;;;;;;;;;;5020171;28;20060;-75
2022/11/22 09:09:48;;;;;;;11.35;2.88;;;;;;;;;;5015563;28;20144;-77
2022/11/22 09:12:15;;;;;;;13.82;2.60;;;;;;;;;;5023790;28;20463;-76
2022/11/22 09:14:41;;;;;;;18.15;2.50;;;;;;;;;;5026588;28;20428;-76
2022/11/22 09:17:07;;;;;;;9.38;2.17;;;;;;;;;;5026144;28;20064;-76
2022/11/22 09:19:33;;;;;;;12.23;2.25;;;;;;;;;;5024030;28;20159;-76
2022/11/22 09:21:59;;;;;;;14.18;2.60;;;;;;;;;;5025579;28;20040;-76
2022/11/22 09:24:25;;;;;;;16.98;3.38;;;;;;;;;;5018335;28;20337;-76
2022/11/22 09:26:51;;;;;;;12.82;2.72;;;;;;;;;;5022559;28;20124;-75
2022/11/22 09:29:17;;;;;;;9.32;2.15;;;;;;;;;;5007733;28;20033;-76
2022/11/22 09:31:43;;;;;;;13.35;2.53;;;;;;;;;;5024577;28;20034;-76
2022/11/22 09:34:09;;;;;;;11.50;2.38;;;;;;;;;;5029329;28;20473;-76
2022/11/22 09:36:35;;;;;;;10.95;2.50;;;;;;;;;;5015561;28;20037;-76
2022/11/22 09:39:01;;;;;;;8.52;2.17;;;;;;;;;;5001451;28;20021;-76
2022/11/22 09:41:45;;;;;;;8.18;2.10;;;;;;;;;;5020408;28;20026;-75
2022/11/22 09:44:11;;;;;;;17.13;2.50;;;;;;;;;;5024876;28;20021;-75
2022/11/22 09:46:51;;;;;;;15.00;2.58;;;;;;;;;;5011976;28;20503;-76
2022/11/22 09:49:20;;;;;;;16.15;2.22;;;;;;;;;;5013134;28;20099;-76
2022/11/22 09:51:56;;;;;;;10.30;2.40;;;;;;;;;;5025672;28;20033;-76
2022/11/22 09:54:25;;;;;;;16.95;2.22;;;;;;;;;;5026477;28;20816;-76
2022/11/22 09:56:53;;;;;;;13.93;2.50;;;;;;;;;;5020898;28;20025;-76
2022/11/22 09:59:20;;;;;;;10.70;2.42;;;;;;;;;;5024680;28;20022;-76
2022/11/22 10:01:53;;;;;;;13.70;1.90;;;;;;;;;;5030467;28;20038;-76
2022/11/22 10:04:22;;;;;;;11.60;2.20;;;;;;;;;;5024220;28;20014;-75
2022/11/22 10:07:08;;;;;;;16.08;2.70;;;;;;;;;;5021436;28;20110;-76
2022/11/22 10:09:47;;;;;;;11.98;2.40;;;;;;;;;;5021698;28;20146;-76
2022/11/22 10:12:22;;;;;;;13.20;2.38;;;;;;;;;;5029037;28;20014;-75
2022/11/22 10:14:53;;;;;;;14.18;2.30;;;;;;;;;;5028107;28;20022;-77
2022/11/22 10:17:39;;;;;;;9.15;1.65;;;;;;;;;;5035046;28;20488;-76
2022/11/22 10:20:11;;;;;;;8.30;2.45;;;;;;;;;;5027179;28;20419;-76
2022/11/22 10:22:37;;;;;;;9.65;1.85;;;;;;;;;;5022961;28;20034;-76
2022/11/22 10:25:12;;;;;;;13.82;2.53;;;;;;;;;;5035096;28;20438;-76
2022/11/22 10:27:40;;;;;;;11.18;2.50;;;;;;;;;;5035373;28;20460;-75
2022/11/22 10:30:13;;;;;;;11.38;2.35;;;;;;;;;;5035357;28;20522;-75
2022/11/22 10:32:57;;;;;;;11.07;2.35;;;;;;;;;;5035740;28;20033;-76
2022/11/22 10:35:42;;;;;;;13.05;2.55;;;;;;;;;;5030130;28;20065;-76
2022/11/22 10:38:26;;;;;;;12.32;2.85;;;;;;;;;;5019384;28;20029;-76
2022/11/22 10:40:59;;;;;;;9.52;2.20;;;;;;;;;;5015078;28;20306;-76
2022/11/22 10:43:38;;;;;;;12.32;3.58;;;;;;;;;;5015477;28;20025;-76
2022/11/22 10:46:04;;;;;;;11.68;2.45;;;;;;;;;;5015310;28;20033;-75
2022/11/22 10:48:35;;;;;;;17.92;2.55;;;;;;;;;;5015189;28;20057;-75
2022/11/22 10:51:07;;;;;;;13.13;2.45;;;;;;;;;;5028816;28;20341;-76
2022/11/22 10:53:42;;;;;;;12.43;2.13;;;;;;;;;;5026582;28;20044;-76
2022/11/22 10:56:14;;;;;;;8.25;2.05;;;;;;;;;;5030637;28;20036;-76
2022/11/22 10:58:52;;;;;;;9.82;2.10;;;;;;;;;;5022843;28;20021;-76
2022/11/22 11:01:24;;;;;;;10.88;2.28;;;;;;;;;;5025518;28;20068;-76
2022/11/22 11:03:53;;;;;;;14.52;2.97;;;;;;;;;;5023815;28;20033;-75
2022/11/22 11:06:26;;;;;;;15.43;3.45;;;;;;;;;;5022578;28;20022;-76
2022/11/22 11:08:51;;;;;;;;;;;;;;;;;;5021974;28;20014;-75
2022/11/22 11:11:18;;;;;;;7.90;2.40;;;;;;;;;;5027915;28;20311;-76
2022/11/22 11:13:50;;;;;;;8.32;2.13;;;;;;;;;;5015254;28;20357;-76
2022/11/22 11:16:22;;;;;;;10.90;1.90;;;;;;;;;;5016817;28;20030;-75
2022/11/22 11:19:04;;;;;;;6.50;2.15;;;;;;;;;;5016623;28;20025;-76
2022/11/22 11:21:30;;;;;;;17.90;3.13;;;;;;;;;;5030880;28;20525;-76
2022/11/22 11:23:56;;;;;;;11.52;2.13;;;;;;;;;;5005203;28;20092;-77
2022/11/22 11:26:41;;;;;;;7.35;1.85;;;;;;;;;;5034091;28;20025;-76
2022/11/22 11:29:33;;;;;;;12.10;1.98;;;;;;;;;;5034228;28;20025;-75
2022/11/22 11:32:05;;;;;;;7.63;1.83;;;;;;;;;;5032141;28;20025;-76
2022/11/22 11:34:32;;;;;;;5.78;1.98;;;;;;;;;;5026994;28;20484;-76
2022/11/22 11:37:00;;;;;;;12.07;2.20;;;;;;;;;;5014360;28;20041;-76
2022/11/22 11:39:30;;;;;;;7.63;1.58;;;;;;;;;;5022603;28;20044;-76
2022/11/22 11:41:56;;;;;;;7.20;1.40;;;;;;;;;;5013887;28;20049;-75
2022/11/22 11:44:33;;;;;;;6.50;1.50;;;;;;;;;;5015821;28;20105;-76
2022/11/22 11:46:59;;;;;;;7.95;1.40;;;;;;;;;;5014048;28;20041;-76
2022/11/22 11:49:29;;;;;;;13.10;1.60;;;;;;;;;;5029883;28;20514;-76
2022/11/22 11:51:55;;;;;;;3.30;1.10;;;;;;;;;;5032479;28;20025;-75
2022/11/22 11:54:25;;;;;;;5.18;1.42;;;;;;;;;;5016089;28;20042;-75
2022/11/22 11:57:04;;;;;;;5.75;1.50;;;;;;;;;;5013320;28;20017;-76
2022/11/22 11:59:39;;;;;;;5.63;1.40;;;;;;;;;;5006754;28;20349;-75
2022/11/22 12:02:11;;;;;;;6.63;1.40;;;;;;;;;;5023912;28;20023;-76
2022/11/22 12:04:37;;;;;;;;;;;;;;;;;;5005965;28;20489;-75
2022/11/22 12:07:16;;;;;;;3.60;1.35;;;;;;;;;;5022542;28;19909;-76
2022/11/22 12:09:46;;;;;;;8.77;1.50;;;;;;;;;;5025330;28;20018;-76
2022/11/22 12:12:32;;;;;;;7.60;1.30;;;;;;;;;;5025905;28;20357;-76
2022/11/22 12:15:01;;;;;;;4.82;1.45;;;;;;;;;;5021921;28;20029;-76
2022/11/22 12:17:29;;;;;;;8.65;1.50;;;;;;;;;;5026289;28;20022;-78
2022/11/22 12:20:07;;;;;;;6.95;1.67;;;;;;;;;;5031780;28;20021;-76
2022/11/22 12:22:42;;;;;;;2.72;1.45;;;;;;;;;;5020713;28;20476;-76
2022/11/22 12:25:17;;;;;;;3.50;1.40;;;;;;;;;;5020248;28;20033;-76
2022/11/22 12:27:43;;;;;;;7.18;1.48;;;;;;;;;;5029127;28;20037;-76
2022/11/22 12:30:13;;;;;;;5.30;1.30;;;;;;;;;;5029165;28;20022;-76
2022/11/22 12:32:50;;;;;;;6.18;1.50;;;;;;;;;;5027571;28;20044;-76
2022/11/22 12:35:18;;;;;;;3.70;1.23;;;;;;;;;;5032684;28;20040;-76
2022/11/22 12:37:48;;;;;;;7.45;1.65;;;;;;;;;;5025929;28;20125;-76
2022/11/22 12:40:16;;;;;;;8.10;1.70;;;;;;;;;;5028608;28;20044;-76
2022/11/22 12:42:46;;;;;;;3.42;1.17;;;;;;;;;;5031928;28;20017;-76
2022/11/22 12:45:16;;;;;;;4.28;1.20;;;;;;;;;;5020444;28;20072;-76
2022/11/22 12:47:44;;;;;;;1.92;0.90;;;;;;;;;;5023849;28;20399;-76
2022/11/22 12:50:10;;;;;;;4.85;1.10;;;;;;;;;;5021332;28;20037;-76
2022/11/22 12:52:42;;;;;;;3.42;1.02;;;;;;;;;;5025901;28;20025;-76
2022/11/22 12:55:14;;;;;;;2.80;1.00;;;;;;;;;;5029602;28;20030;-76
2022/11/22 12:57:45;;;;;;;8.45;1.17;;;;;;;;;;5031810;28;20384;-76
2022/11/22 13:00:16;;;;;;;2.28;0.93;;;;;;;;;;5031575;28;20045;-76
2022/11/22 13:03:01;;;;;;;3.97;0.85;;;;;;;;;;5031836;28;20036;-76
2022/11/22 13:05:30;;;;;;;5.13;1.13;;;;;;;;;;5031728;28;20107;-76
2022/11/22 13:08:13;;;;;;;2.65;0.90;;;;;;;;;;5021056;28;20033;-76
2022/11/22 13:10:58;;;;;;;3.58;0.70;;;;;;;;;;5012271;28;20132;-76
2022/11/22 13:13:27;;;;;;;4.28;0.80;;;;;;;;;;5011943;28;20033;-76
2022/11/22 13:15:54;;;;;;;2.40;1.05;;;;;;;;;;5012006;28;20022;-77
2022/11/22 13:18:24;;;;;;;3.97;0.98;;;;;;;;;;5011725;28;20026;-76
2022/11/22 13:21:16;;;;;;;3.15;0.60;;;;;;;;;;5029987;28;20029;-76
2022/11/22 13:24:06;;;;;;;2.70;1.10;;;;;;;;;;5004908;28;20045;-76
2022/11/22 13:26:44;;;;;;;3.35;1.17;;;;;;;;;;5023742;28;20087;-76
2022/11/22 13:29:16;;;;;;;2.95;0.40;;;;;;;;;;5031633;28;20021;-76
2022/11/22 13:32:01;;;;;;;1.50;0.70;;;;;;;;;;5014627;28;20034;-76
2022/11/22 13:34:28;;;;;;;3.42;1.00;;;;;;;;;;4994073;28;20429;-76
2022/11/22 13:36:54;;;;;;;2.45;1.13;;;;;;;;;;5011461;28;20732;-76
2022/11/22 13:39:22;;;;;;;2.42;0.90;;;;;;;;;;5042231;28;20107;-76
2022/11/22 13:41:54;;;;;;;1.33;0.77;;;;;;;;;;5031387;28;20481;-76
2022/11/22 13:44:23;;;;;;;3.17;0.70;;;;;;;;;;5031767;28;20044;-76
2022/11/22 13:46:49;;;;;;;1.70;0.60;;;;;;;;;;5031323;28;20032;-76
2022/11/22 13:49:28;;;;;;;3.30;1.00;;;;;;;;;;5031611;28;20033;-76
2022/11/22 13:51:58;;;;;;;4.25;1.10;;;;;;;;;;5030953;28;20722;-76
2022/11/22 13:54:33;;;;;;;1.25;0.70;;;;;;;;;;5013318;28;20041;-75
2022/11/22 13:57:00;;;;;;;2.88;0.70;;;;;;;;;;5030940;28;20384;-76
2022/11/22 13:59:26;;;;;;;2.42;0.60;;;;;;;;;;5031122;28;20750;-76
2022/11/22 14:01:54;;;;;;;1.75;0.50;;;;;;;;;;5030695;28;20095;-76
2022/11/22 14:04:40;;;;;;;5.18;0.82;;;;;;;;;;5031021;28;20038;-76
2022/11/22 14:07:09;;;;;;;1.70;0.52;;;;;;;;;;5030676;28;20036;-76
2022/11/22 14:09:38;;;;;;;1.20;0.50;;;;;;;;;;5029557;28;20030;-76
2022/11/22 14:12:04;;;;;;;1.27;0.75;;;;;;;;;;5011416;28;20069;-76
2022/11/22 14:14:38;;;;;;;3.80;0.60;;;;;;;;;;5021389;28;20452;-76
2022/11/22 14:17:10;;;;;;;0.90;0.55;;;;;;;;;;5031017;28;20519;-76
2022/11/22 14:19:39;;;;;;;2.92;0.70;;;;;;;;;;5029190;28;20022;-76
2022/11/22 14:22:29;;;;;;;1.83;0.88;;;;;;;;;;5025654;28;20021;-76
2022/11/22 14:25:12;;;;;;;2.60;1.13;;;;;;;;;;5021774;28;20448;-76
2022/11/22 14:27:56;;;;;;;1.08;0.50;;;;;;;;;;5017334;28;20033;-76
2022/11/22 14:30:37;;;;;;;1.73;0.70;;;;;;;;;;5024504;28;20026;-77
2022/11/22 14:33:04;;;;;;;4.80;0.82;;;;;;;;;;5018844;28;20049;-76
2022/11/22 14:35:32;;;;;;;1.80;0.60;;;;;;;;;;5021038;28;20022;-76
2022/11/22 14:38:24;;;;;;;2.17;0.80;;;;;;;;;;5022113;28;20014;-76
2022/11/22 14:40:50;;;;;;;;;;;;;;;;;;5021755;28;20022;-76
2022/11/22 14:43:28;;;;;;;0.95;0.80;;;;;;;;;;5030753;28;20657;-76
2022/11/22 14:45:58;;;;;;;3.28;1.20;;;;;;;;;;5014789;28;20053;-74
2022/11/22 14:48:27;;;;;;;1.85;0.88;;;;;;;;;;5014430;28;20456;-74
2022/11/22 14:51:05;;;;;;;2.80;1.55;;;;;;;;;;5014486;28;20060;-74
2022/11/22 14:53:45;;;;;;;1.83;0.80;;;;;;;;;;5024348;28;20035;-74